Wetterdaten: Freitag, 23.11.2007
Datum Zeit Temp. A. Feuchte A. Luftdruck Regen Wind Richtung Richtung Sonnenschein UV Solar Windben
23.11.2007 00:00 3,8 C 91 % 1007,2 hPa 0,0 mm 0,0 km/h (0 Bft) SO 135 0 min 0 UV-I 0 W/m 1,6 km/h (1 Bft)
23.11.2007 00:10 3,7 C 91 % 1007,3 hPa 0,0 mm 0,0 km/h (0 Bft) SO 135 0 min 0 UV-I 0 W/m 1,6 km/h (1 Bft)
23.11.2007 00:20 3,6 C 91 % 1007,3 hPa 0,0 mm 0,0 km/h (0 Bft) N 0 0 min 0 UV-I 0 W/m 0,0 km/h (0 Bft)
23.11.2007 00:30 3,6 C 91 % 1007,5 hPa 0,0 mm 0,0 km/h (0 Bft) N 0 0 min 0 UV-I 0 W/m 0,0 km/h (0 Bft)
23.11.2007 00:40 3,6 C 91 % 1007,6 hPa 0,0 mm 0,0 km/h (0 Bft) SO 135 0 min 0 UV-I 0 W/m 1,6 km/h (1 Bft)
23.11.2007 00:50 3,6 C 91 % 1007,4 hPa 0,0 mm 0,0 km/h (0 Bft) SO 135 0 min 0 UV-I 0 W/m 1,6 km/h (1 Bft)
23.11.2007 01:00 3,5 C 91 % 1007,3 hPa 0,0 mm 0,0 km/h (0 Bft) SO 135 0 min 0 UV-I 0 W/m 1,6 km/h (1 Bft)
23.11.2007 01:10 3,5 C 92 % 1007,2 hPa 0,0 mm 0,0 km/h (0 Bft) SO 135 0 min 0 UV-I 0 W/m 3,2 km/h (1 Bft)
23.11.2007 01:20 3,5 C 92 % 1007,2 hPa 0,0 mm 0,0 km/h (0 Bft) SO 135 0 min 0 UV-I 0 W/m 1,6 km/h (1 Bft)
23.11.2007 01:30 3,5 C 92 % 1007,3 hPa 0,0 mm 0,0 km/h (0 Bft) SO 135 0 min 0 UV-I 0 W/m 1,6 km/h (1 Bft)
23.11.2007 01:40 3,6 C 92 % 1007,3 hPa 0,0 mm 1,6 km/h (1 Bft) SO 135 0 min 0 UV-I 0 W/m 3,2 km/h (1 Bft)
23.11.2007 01:50 3,6 C 92 % 1007,3 hPa 0,0 mm 0,0 km/h (0 Bft) SO 135 0 min 0 UV-I 0 W/m 1,6 km/h (1 Bft)
23.11.2007 02:00 3,7 C 92 % 1007,2 hPa 0,0 mm 0,0 km/h (0 Bft) SO 135 0 min 0 UV-I 0 W/m 3,2 km/h (1 Bft)
23.11.2007 02:10 3,8 C 93 % 1007,4 hPa 0,0 mm 0,0 km/h (0 Bft) SO 135 0 min 0 UV-I 0 W/m 3,2 km/h (1 Bft)
23.11.2007 02:20 3,9 C 93 % 1007,4 hPa 0,0 mm 0,0 km/h (0 Bft) SO 135 0 min 0 UV-I 0 W/m 3,2 km/h (1 Bft)
23.11.2007 02:30 4,1 C 93 % 1007,5 hPa 0,0 mm 0,0 km/h (0 Bft) SO 135 0 min 0 UV-I 0 W/m 3,2 km/h (1 Bft)
23.11.2007 02:40 4,2 C 93 % 1007,4 hPa 0,0 mm 0,0 km/h (0 Bft) SO 135 0 min 0 UV-I 0 W/m 1,6 km/h (1 Bft)
23.11.2007 02:50 4,3 C 93 % 1007,3 hPa 0,0 mm 0,0 km/h (0 Bft) SO 135 0 min 0 UV-I 0 W/m 3,2 km/h (1 Bft)
23.11.2007 03:00 4,5 C 93 % 1007,4 hPa 0,0 mm 0,0 km/h (0 Bft) SO 135 0 min 0 UV-I 0 W/m 1,6 km/h (1 Bft)
23.11.2007 03:10 4,6 C 93 % 1007,3 hPa 0,0 mm 0,0 km/h (0 Bft) SO 135 0 min 0 UV-I 0 W/m 3,2 km/h (1 Bft)
23.11.2007 03:20 4,7 C 93 % 1007,3 hPa 0,0 mm 0,0 km/h (0 Bft) SO 135 0 min 0 UV-I 0 W/m 3,2 km/h (1 Bft)
23.11.2007 03:30 4,7 C 93 % 1007,5 hPa 0,0 mm 0,0 km/h (0 Bft) SO 135 0 min 0 UV-I 0 W/m 1,6 km/h (1 Bft)
23.11.2007 03:40 4,7 C 93 % 1007,7 hPa 0,0 mm 0,0 km/h (0 Bft) SO 135 0 min 0 UV-I 0 W/m 1,6 km/h (1 Bft)
23.11.2007 03:50 4,7 C 93 % 1007,7 hPa 0,0 mm 0,0 km/h (0 Bft) SO 135 0 min 0 UV-I 0 W/m 1,6 km/h (1 Bft)
23.11.2007 04:00 4,8 C 94 % 1007,6 hPa 0,0 mm 0,0 km/h (0 Bft) SO 135 0 min 0 UV-I 0 W/m 1,6 km/h (1 Bft)
23.11.2007 04:10 4,9 C 94 % 1007,6 hPa 0,0 mm 0,0 km/h (0 Bft) SO 135 0 min 0 UV-I 0 W/m 1,6 km/h (1 Bft)
23.11.2007 04:20 5,0 C 94 % 1007,7 hPa 0,0 mm 0,0 km/h (0 Bft) N 0 0 min 0 UV-I 0 W/m 0,0 km/h (0 Bft)
23.11.2007 04:30 5,1 C 94 % 1007,5 hPa 0,0 mm 0,0 km/h (0 Bft) N 0 0 min 0 UV-I 0 W/m 0,0 km/h (0 Bft)
23.11.2007 04:40 5,2 C 94 % 1007,6 hPa 0,0 mm 0,0 km/h (0 Bft) N 0 0 min 0 UV-I 0 W/m 0,0 km/h (0 Bft)
23.11.2007 04:50 5,2 C 94 % 1007,7 hPa 0,0 mm 0,0 km/h (0 Bft) N 0 0 min 0 UV-I 0 W/m 0,0 km/h (0 Bft)
23.11.2007 05:00 5,3 C 94 % 1007,7 hPa 0,0 mm 0,0 km/h (0 Bft) N 0 0 min 0 UV-I 0 W/m 0,0 km/h (0 Bft)
23.11.2007 05:10 5,4 C 94 % 1007,9 hPa 0,0 mm 0,0 km/h (0 Bft) N 0 0 min 0 UV-I 0 W/m 0,0 km/h (0 Bft)
23.11.2007 05:20 5,5 C 94 % 1008,2 hPa 0,0 mm 0,0 km/h (0 Bft) SO 135 0 min 0 UV-I 0 W/m 1,6 km/h (1 Bft)
23.11.2007 05:30 5,6 C 94 % 1008,2 hPa 0,0 mm 0,0 km/h (0 Bft) N 0 0 min 0 UV-I 0 W/m 0,0 km/h (0 Bft)
23.11.2007 05:40 5,7 C 94 % 1008,3 hPa 0,0 mm 0,0 km/h (0 Bft) N 0 0 min 0 UV-I 0 W/m 0,0 km/h (0 Bft)
23.11.2007 05:50 5,7 C 94 % 1008,3 hPa 0,0 mm 0,0 km/h (0 Bft) SW 225 0 min 0 UV-I 0 W/m 4,8 km/h (1 Bft)
23.11.2007 06:00 6,0 C 94 % 1008,3 hPa 0,0 mm 3,2 km/h (1 Bft) SW 225 0 min 0 UV-I 0 W/m 6,4 km/h (2 Bft)
23.11.2007 06:10 6,4 C 95 % 1008,2 hPa 0,0 mm 3,2 km/h (1 Bft) W-SW 247 0 min 0 UV-I 0 W/m 8,0 km/h (2 Bft)
23.11.2007 06:20 6,7 C 95 % 1008,3 hPa 0,0 mm 1,6 km/h (1 Bft) W-SW 247 0 min 0 UV-I 0 W/m 4,8 km/h (1 Bft)
23.11.2007 06:30 6,9 C 95 % 1008,1 hPa 0,0 mm 0,0 km/h (0 Bft) W-SW 247 0 min 0 UV-I 0 W/m 1,6 km/h (1 Bft)
23.11.2007 06:40 7,0 C 94 % 1008,1 hPa 0,0 mm 0,0 km/h (0 Bft) W-SW 247 0 min 0 UV-I 0 W/m 3,2 km/h (1 Bft)
23.11.2007 06:50 7,1 C 94 % 1008,3 hPa 0,0 mm 0,0 km/h (0 Bft) W-SW 247 0 min 0 UV-I 0 W/m 3,2 km/h (1 Bft)
23.11.2007 07:00 7,1 C 94 % 1008,3 hPa 0,0 mm 0,0 km/h (0 Bft) W-SW 247 0 min 0 UV-I 0 W/m 3,2 km/h (1 Bft)
23.11.2007 07:10 7,1 C 94 % 1008,5 hPa 0,0 mm 0,0 km/h (0 Bft) W-SW 247 0 min 0 UV-I 0 W/m 3,2 km/h (1 Bft)
23.11.2007 07:20 7,2 C 94 % 1008,5 hPa 0,0 mm 0,0 km/h (0 Bft) W-SW 247 0 min 0 UV-I 0 W/m 3,2 km/h (1 Bft)
23.11.2007 07:30 7,2 C 94 % 1008,6 hPa 0,0 mm 0,0 km/h (0 Bft) W-SW 247 0 min 0 UV-I 0 W/m 1,6 km/h (1 Bft)
23.11.2007 07:40 7,2 C 94 % 1008,8 hPa 0,0 mm 0,0 km/h (0 Bft) W-SW 247 0 min 0 UV-I 0 W/m 1,6 km/h (1 Bft)
23.11.2007 07:50 7,2 C 94 % 1009,1 hPa 0,0 mm 0,0 km/h (0 Bft) W-SW 247 0 min 0 UV-I 0 W/m 1,6 km/h (1 Bft)
23.11.2007 08:00 7,2 C 94 % 1009,3 hPa 0,0 mm 0,0 km/h (0 Bft) W-SW 247 0 min 0 UV-I 0 W/m 1,6 km/h (1 Bft)
23.11.2007 08:10 7,2 C 94 % 1009,4 hPa 0,0 mm 0,0 km/h (0 Bft) W-SW 247 0 min 0 UV-I 0 W/m 3,2 km/h (1 Bft)
23.11.2007 08:20 7,2 C 94 % 1009,7 hPa 0,0 mm 0,0 km/h (0 Bft) W-SW 247 0 min 0 UV-I 5 W/m 3,2 km/h (1 Bft)
23.11.2007 08:30 7,2 C 94 % 1009,7 hPa 0,0 mm 0,0 km/h (0 Bft) W-SW 247 0 min 0 UV-I 11 W/m 3,2 km/h (1 Bft)
23.11.2007 08:40 7,2 C 94 % 1009,7 hPa 0,0 mm 0,0 km/h (0 Bft) W-SW 247 0 min 0 UV-I 18 W/m 3,2 km/h (1 Bft)
23.11.2007 08:50 7,2 C 94 % 1009,9 hPa 0,0 mm 0,0 km/h (0 Bft) W-SW 247 0 min 0 UV-I 26 W/m 1,6 km/h (1 Bft)
23.11.2007 09:00 7,2 C 94 % 1010,2 hPa 0,0 mm 0,0 km/h (0 Bft) W-SW 247 0 min 0 UV-I 28 W/m 1,6 km/h (1 Bft)
23.11.2007 09:10 7,2 C 94 % 1010,3 hPa 0,0 mm 0,0 km/h (0 Bft) W-SW 247 0 min 0 UV-I 33 W/m 3,2 km/h (1 Bft)
23.11.2007 09:20 7,2 C 94 % 1010,4 hPa 0,0 mm 0,0 km/h (0 Bft) W-SW 247 0 min 0 UV-I 40 W/m 3,2 km/h (1 Bft)
23.11.2007 09:30 7,2 C 94 % 1010,4 hPa 0,0 mm 0,0 km/h (0 Bft) W-SW 247 0 min 0 UV-I 44 W/m 3,2 km/h (1 Bft)
23.11.2007 09:40 7,2 C 94 % 1010,6 hPa 0,0 mm 0,0 km/h (0 Bft) W-SW 247 0 min 0 UV-I 47 W/m 4,8 km/h (1 Bft)
23.11.2007 09:50 7,3 C 94 % 1010,6 hPa 0,0 mm 1,6 km/h (1 Bft) W-NW 292 0 min 0 UV-I 42 W/m 6,4 km/h (2 Bft)
23.11.2007 10:00 7,3 C 94 % 1010,7 hPa 0,0 mm 3,2 km/h (1 Bft) W-NW 292 0 min 0 UV-I 33 W/m 11,3 km/h (2 Bft)
23.11.2007 10:10 7,3 C 94 % 1010,7 hPa 0,0 mm 4,8 km/h (1 Bft) W 270 0 min 0 UV-I 37 W/m 16,1 km/h (3 Bft)
23.11.2007 10:20 7,3 C 94 % 1010,7 hPa 0,0 mm 4,8 km/h (1 Bft) W 270 0 min 0 UV-I 51 W/m 11,3 km/h (2 Bft)
23.11.2007 10:30 7,3 C 94 % 1010,9 hPa 0,0 mm 3,2 km/h (1 Bft) W 270 0 min 0 UV-I 56 W/m 9,7 km/h (2 Bft)
23.11.2007 10:40 7,2 C 94 % 1011,0 hPa 0,0 mm 3,2 km/h (1 Bft) W 270 0 min 0 UV-I 74 W/m 11,3 km/h (2 Bft)
23.11.2007 10:50 7,2 C 93 % 1011,2 hPa 0,0 mm 3,2 km/h (1 Bft) W-NW 292 0 min 0 UV-I 67 W/m 6,4 km/h (2 Bft)
23.11.2007 11:00 7,3 C 93 % 1011,3 hPa 0,0 mm 3,2 km/h (1 Bft) W 270 0 min 0 UV-I 58 W/m 8,0 km/h (2 Bft)
23.11.2007 11:10 7,3 C 93 % 1011,5 hPa 0,0 mm 1,6 km/h (1 Bft) W 270 0 min 0 UV-I 56 W/m 6,4 km/h (2 Bft)
23.11.2007 11:20 7,4 C 93 % 1011,7 hPa 0,0 mm 3,2 km/h (1 Bft) W 270 0 min 0 UV-I 58 W/m 6,4 km/h (2 Bft)
23.11.2007 11:30 7,4 C 93 % 1011,7 hPa 0,0 mm 3,2 km/h (1 Bft) W-SW 247 0 min 0 UV-I 65 W/m 8,0 km/h (2 Bft)
23.11.2007 11:40 7,6 C 92 % 1011,6 hPa 0,0 mm 3,2 km/h (1 Bft) W 270 0 min 0 UV-I 56 W/m 9,7 km/h (2 Bft)
23.11.2007 11:50 7,6 C 92 % 1011,6 hPa 0,0 mm 3,2 km/h (1 Bft) W 270 0 min 0 UV-I 47 W/m 8,0 km/h (2 Bft)
23.11.2007 12:00 7,7 C 91 % 1011,7 hPa 0,0 mm 3,2 km/h (1 Bft) W 270 0 min 0 UV-I 47 W/m 8,0 km/h (2 Bft)
23.11.2007 12:10 7,7 C 91 % 1011,8 hPa 0,0 mm 3,2 km/h (1 Bft) W 270 0 min 0 UV-I 33 W/m 8,0 km/h (2 Bft)
23.11.2007 12:20 7,7 C 91 % 1011,8 hPa 0,0 mm 3,2 km/h (1 Bft) W-NW 292 0 min 0 UV-I 21 W/m 8,0 km/h (2 Bft)
23.11.2007 12:30 7,7 C 91 % 1011,8 hPa 0,0 mm 3,2 km/h (1 Bft) W-NW 292 0 min 0 UV-I 25 W/m 9,7 km/h (2 Bft)
23.11.2007 12:40 7,7 C 91 % 1011,8 hPa 0,0 mm 3,2 km/h (1 Bft) W-NW 292 0 min 0 UV-I 65 W/m 14,5 km/h (3 Bft)
23.11.2007 12:50 7,7 C 91 % 1011,8 hPa 0,0 mm 1,6 km/h (1 Bft) NW 315 0 min 0 UV-I 62 W/m 6,4 km/h (2 Bft)
23.11.2007 13:00 7,7 C 91 % 1011,8 hPa 0,0 mm 3,2 km/h (1 Bft) NW 315 0 min 0 UV-I 40 W/m 9,7 km/h (2 Bft)
23.11.2007 13:10 7,7 C 90 % 1012,0 hPa 0,0 mm 3,2 km/h (1 Bft) W-NW 292 0 min 0 UV-I 39 W/m 9,7 km/h (2 Bft)
23.11.2007 13:20 7,7 C 90 % 1012,2 hPa 0,0 mm 1,6 km/h (1 Bft) W-NW 292 0 min 0 UV-I 42 W/m 6,4 km/h (2 Bft)
23.11.2007 13:30 7,7 C 90 % 1012,3 hPa 0,0 mm 1,6 km/h (1 Bft) NW 315 0 min 0 UV-I 25 W/m 6,4 km/h (2 Bft)
23.11.2007 13:40 7,7 C 90 % 1012,4 hPa 0,0 mm 1,6 km/h (1 Bft) NW 315 0 min 0 UV-I 39 W/m 4,8 km/h (1 Bft)
23.11.2007 13:50 7,7 C 89 % 1012,5 hPa 0,0 mm 3,2 km/h (1 Bft) NW 315 0 min 0 UV-I 53 W/m 8,0 km/h (2 Bft)
23.11.2007 14:00 7,8 C 90 % 1012,5 hPa 0,0 mm 3,2 km/h (1 Bft) W 270 0 min 0 UV-I 69 W/m 6,4 km/h (2 Bft)
23.11.2007 14:10 7,8 C 89 % 1012,7 hPa 0,0 mm 3,2 km/h (1 Bft) W 270 0 min 0 UV-I 42 W/m 6,4 km/h (2 Bft)
23.11.2007 14:20 7,8 C 89 % 1012,7 hPa 0,0 mm 4,8 km/h (1 Bft) W 270 0 min 0 UV-I 42 W/m 9,7 km/h (2 Bft)
23.11.2007 14:30 7,8 C 88 % 1012,9 hPa 0,0 mm 4,8 km/h (1 Bft) W 270 0 min 0 UV-I 51 W/m 9,7 km/h (2 Bft)
23.11.2007 14:40 7,8 C 88 % 1012,9 hPa 0,0 mm 3,2 km/h (1 Bft) W 270 0 min 0 UV-I 40 W/m 9,7 km/h (2 Bft)
23.11.2007 14:50 7,8 C 89 % 1013,1 hPa 0,3 mm 3,2 km/h (1 Bft) W 270 0 min 0 UV-I 11 W/m 9,7 km/h (2 Bft)
23.11.2007 15:00 7,8 C 89 % 1013,4 hPa 0,3 mm 6,4 km/h (2 Bft) W-NW 292 0 min 0 UV-I 9 W/m 20,9 km/h (4 Bft)
23.11.2007 15:10 7,6 C 89 % 1013,6 hPa 0,3 mm 4,8 km/h (1 Bft) NW 315 0 min 0 UV-I 11 W/m 16,1 km/h (3 Bft)
23.11.2007 15:20 7,3 C 89 % 1013,8 hPa 0,3 mm 4,8 km/h (1 Bft) W-NW 292 0 min 0 UV-I 9 W/m 17,7 km/h (3 Bft)
23.11.2007 15:30 7,0 C 90 % 1014,1 hPa 0,0 mm 3,2 km/h (1 Bft) W-NW 292 0 min 0 UV-I 9 W/m 11,3 km/h (2 Bft)
23.11.2007 15:40 6,8 C 90 % 1014,3 hPa 0,0 mm 3,2 km/h (1 Bft) NW 315 0 min 0 UV-I 0 W/m 9,7 km/h (2 Bft)
23.11.2007 15:50 6,7 C 90 % 1014,5 hPa 0,0 mm 3,2 km/h (1 Bft) N-NW 337 0 min 0 UV-I 0 W/m 11,3 km/h (2 Bft)
23.11.2007 16:00 6,6 C 90 % 1014,8 hPa 0,0 mm 1,6 km/h (1 Bft) N-NW 337 0 min 0 UV-I 0 W/m 6,4 km/h (2 Bft)
23.11.2007 16:10 6,4 C 90 % 1015,0 hPa 0,0 mm 1,6 km/h (1 Bft) W-NW 292 0 min 0 UV-I 0 W/m 8,0 km/h (2 Bft)
23.11.2007 16:20 6,3 C 90 % 1015,1 hPa 0,0 mm 3,2 km/h (1 Bft) NW 315 0 min 0 UV-I 0 W/m 8,0 km/h (2 Bft)
23.11.2007 16:30 6,2 C 90 % 1015,2 hPa 0,0 mm 3,2 km/h (1 Bft) NW 315 0 min 0 UV-I 0 W/m 11,3 km/h (2 Bft)
23.11.2007 16:40 6,2 C 89 % 1015,3 hPa 0,0 mm 3,2 km/h (1 Bft) W-NW 292 0 min 0 UV-I 0 W/m 8,0 km/h (2 Bft)
23.11.2007 16:50 6,1 C 89 % 1015,5 hPa 0,0 mm 3,2 km/h (1 Bft) W-NW 292 0 min 0 UV-I 0 W/m 6,4 km/h (2 Bft)
23.11.2007 17:00 6,1 C 89 % 1015,7 hPa 0,0 mm 1,6 km/h (1 Bft) W-NW 292 0 min 0 UV-I 0 W/m 6,4 km/h (2 Bft)
23.11.2007 17:10 6,0 C 88 % 1015,9 hPa 0,0 mm 1,6 km/h (1 Bft) W 270 0 min 0 UV-I 0 W/m 8,0 km/h (2 Bft)
23.11.2007 17:20 5,9 C 88 % 1016,1 hPa 0,0 mm 1,6 km/h (1 Bft) W-NW 292 0 min 0 UV-I 0 W/m 4,8 km/h (1 Bft)
23.11.2007 17:30 5,9 C 88 % 1016,3 hPa 0,0 mm 1,6 km/h (1 Bft) W 270 0 min 0 UV-I 0 W/m 6,4 km/h (2 Bft)
23.11.2007 17:40 5,9 C 88 % 1016,6 hPa 0,0 mm 1,6 km/h (1 Bft) W 270 0 min 0 UV-I 0 W/m 4,8 km/h (1 Bft)
23.11.2007 17:50 5,9 C 88 % 1016,8 hPa 0,0 mm 3,2 km/h (1 Bft) W 270 0 min 0 UV-I 0 W/m 8,0 km/h (2 Bft)
23.11.2007 18:00 5,9 C 88 % 1017,0 hPa 0,0 mm 4,8 km/h (1 Bft) W 270 0 min 0 UV-I 0 W/m 9,7 km/h (2 Bft)
23.11.2007 18:10 5,8 C 88 % 1017,0 hPa 0,0 mm 3,2 km/h (1 Bft) W-SW 247 0 min 0 UV-I 0 W/m 8,0 km/h (2 Bft)
23.11.2007 18:20 5,8 C 88 % 1017,2 hPa 0,0 mm 3,2 km/h (1 Bft) W 270 0 min 0 UV-I 0 W/m 9,7 km/h (2 Bft)
23.11.2007 18:30 5,8 C 88 % 1017,4 hPa 0,0 mm 3,2 km/h (1 Bft) W-NW 292 0 min 0 UV-I 0 W/m 12,9 km/h (3 Bft)
23.11.2007 18:40 5,8 C 88 % 1017,6 hPa 0,0 mm 1,6 km/h (1 Bft) W 270 0 min 0 UV-I 0 W/m 6,4 km/h (2 Bft)
23.11.2007 18:50 5,8 C 89 % 1017,8 hPa 0,0 mm 4,8 km/h (1 Bft) W 270 0 min 0 UV-I 0 W/m 11,3 km/h (2 Bft)
23.11.2007 19:00 5,8 C 89 % 1017,9 hPa 0,0 mm 3,2 km/h (1 Bft) W 270 0 min 0 UV-I 0 W/m 8,0 km/h (2 Bft)
23.11.2007 19:10 5,8 C 89 % 1018,1 hPa 0,0 mm 3,2 km/h (1 Bft) W 270 0 min 0 UV-I 0 W/m 9,7 km/h (2 Bft)
23.11.2007 19:20 5,7 C 88 % 1018,3 hPa 0,0 mm 3,2 km/h (1 Bft) W-NW 292 0 min 0 UV-I 0 W/m 9,7 km/h (2 Bft)
23.11.2007 19:30 5,6 C 88 % 1018,4 hPa 0,0 mm 3,2 km/h (1 Bft) W-NW 292 0 min 0 UV-I 0 W/m 9,7 km/h (2 Bft)
23.11.2007 19:40 5,6 C 87 % 1018,6 hPa 0,0 mm 1,6 km/h (1 Bft) W-NW 292 0 min 0 UV-I 0 W/m 4,8 km/h (1 Bft)
23.11.2007 19:50 5,6 C 87 % 1018,7 hPa 0,0 mm 3,2 km/h (1 Bft) W 270 0 min 0 UV-I 0 W/m 8,0 km/h (2 Bft)
23.11.2007 20:00 5,6 C 87 % 1018,9 hPa 0,0 mm 3,2 km/h (1 Bft) W 270 0 min 0 UV-I 0 W/m 9,7 km/h (2 Bft)
23.11.2007 20:10 5,5 C 87 % 1019,0 hPa 0,0 mm 3,2 km/h (1 Bft) W 270 0 min 0 UV-I 0 W/m 8,0 km/h (2 Bft)
23.11.2007 20:20 5,4 C 86 % 1019,1 hPa 0,0 mm 3,2 km/h (1 Bft) W 270 0 min 0 UV-I 0 W/m 8,0 km/h (2 Bft)
23.11.2007 20:30 5,4 C 86 % 1019,4 hPa 0,0 mm 3,2 km/h (1 Bft) W 270 0 min 0 UV-I 0 W/m 6,4 km/h (2 Bft)
23.11.2007 20:40 5,3 C 86 % 1019,5 hPa 0,0 mm 3,2 km/h (1 Bft) W 270 0 min 0 UV-I 0 W/m 11,3 km/h (2 Bft)
23.11.2007 20:50 5,2 C 86 % 1019,7 hPa 0,0 mm 4,8 km/h (1 Bft) W 270 0 min 0 UV-I 0 W/m 16,1 km/h (3 Bft)
23.11.2007 21:00 5,2 C 85 % 1019,8 hPa 0,0 mm 4,8 km/h (1 Bft) W-NW 292 0 min 0 UV-I 0 W/m 9,7 km/h (2 Bft)
23.11.2007 21:10 5,1 C 85 % 1019,9 hPa 0,0 mm 3,2 km/h (1 Bft) W 270 0 min 0 UV-I 0 W/m 11,3 km/h (2 Bft)
23.11.2007 21:20 4,9 C 85 % 1020,0 hPa 0,0 mm 4,8 km/h (1 Bft) W 270 0 min 0 UV-I 0 W/m 12,9 km/h (3 Bft)
23.11.2007 21:30 4,8 C 85 % 1020,1 hPa 0,0 mm 3,2 km/h (1 Bft) W 270 0 min 0 UV-I 0 W/m 8,0 km/h (2 Bft)
23.11.2007 21:40 4,6 C 85 % 1020,3 hPa 0,0 mm 3,2 km/h (1 Bft) W 270 0 min 0 UV-I 0 W/m 6,4 km/h (2 Bft)
23.11.2007 21:50 4,4 C 86 % 1020,3 hPa 0,0 mm 3,2 km/h (1 Bft) W 270 0 min 0 UV-I 0 W/m 9,7 km/h (2 Bft)
23.11.2007 22:00 4,3 C 86 % 1020,5 hPa 0,0 mm 3,2 km/h (1 Bft) W 270 0 min 0 UV-I 0 W/m 6,4 km/h (2 Bft)
23.11.2007 22:10 4,1 C 86 % 1020,7 hPa 0,0 mm 1,6 km/h (1 Bft) W 270 0 min 0 UV-I 0 W/m 6,4 km/h (2 Bft)
23.11.2007 22:20 3,9 C 86 % 1020,8 hPa 0,0 mm 3,2 km/h (1 Bft) W 270 0 min 0 UV-I 0 W/m 8,0 km/h (2 Bft)
23.11.2007 22:30 3,7 C 87 % 1020,8 hPa 0,0 mm 3,2 km/h (1 Bft) W 270 0 min 0 UV-I 0 W/m 6,4 km/h (2 Bft)
23.11.2007 22:40 3,6 C 86 % 1021,0 hPa 0,0 mm 1,6 km/h (1 Bft) W 270 0 min 0 UV-I 0 W/m 6,4 km/h (2 Bft)
23.11.2007 22:50 3,4 C 87 % 1021,2 hPa 0,0 mm 1,6 km/h (1 Bft) W 270 0 min 0 UV-I 0 W/m 4,8 km/h (1 Bft)
23.11.2007 23:00 3,3 C 87 % 1021,4 hPa 0,0 mm 3,2 km/h (1 Bft) W 270 0 min 0 UV-I 0 W/m 6,4 km/h (2 Bft)
23.11.2007 23:10 3,2 C 87 % 1021,3 hPa 0,0 mm 3,2 km/h (1 Bft) W 270 0 min 0 UV-I 0 W/m 8,0 km/h (2 Bft)
23.11.2007 23:20 3,2 C 87 % 1021,3 hPa 0,0 mm 3,2 km/h (1 Bft) W-SW 247 0 min 0 UV-I 0 W/m 8,0 km/h (2 Bft)
23.11.2007 23:30 3,3 C 87 % 1021,4 hPa 0,0 mm 3,2 km/h (1 Bft) SW 225 0 min 0 UV-I 0 W/m 8,0 km/h (2 Bft)
23.11.2007 23:40 3,3 C 87 % 1021,5 hPa 0,0 mm 3,2 km/h (1 Bft) W 270 0 min 0 UV-I 0 W/m 9,7 km/h (2 Bft)
23.11.2007 23:50 3,3 C 87 % 1021,7 hPa 0,0 mm 4,8 km/h (1 Bft) W 270 0 min 0 UV-I 0 W/m 11,3 km/h (2 Bft)
_ Min-Zeit 23:10 21:00 00:00 - 00:00 - - - - - 00:20
Minimum _ 3,2 C 85 % 1007,2 hPa - 0,0 km/h (0 Bft) - - - - - 0,0 km/h (0 Bft)
_ Max-Zeit 14:00 06:10 23:50 14:50 15:00 - - 00:00 00:00 10:40 15:00
Maximum _ 7,8 C 95 % 1021,7 hPa 0,3 mm 6,4 km/h
W-NW (2 Bft)
- - 0 min 0 UV-I 74 W/m 20,9 km/h
NW (4 Bft)
Durchschnitt _ 5,9 C 91 % 1012,7 hPa #1,0 mm 1,9 km/h (1 Bft) W - #0 min. 0 UV-I 39 W/m 6,2 km/h (2 Bft)